createdAt,value
2022-08-01T00:01:02.300Z,20.60
2022-08-01T00:03:30.238Z,19.17
2022-08-01T00:05:58.223Z,17.92
2022-08-01T00:08:26.202Z,17.98
2022-08-01T00:10:54.142Z,17.95
2022-08-01T00:13:22.084Z,19.63
2022-08-01T00:15:54.247Z,17.95
2022-08-01T00:18:23.850Z,18.77
2022-08-01T00:20:51.850Z,18.73
2022-08-01T00:23:19.933Z,18.00
2022-08-01T00:25:47.916Z,18.13
2022-08-01T00:28:15.854Z,17.33
2022-08-01T00:30:43.858Z,16.00
2022-08-01T00:33:11.811Z,18.52
2022-08-01T00:35:41.247Z,18.05
2022-08-01T00:38:09.217Z,17.83
2022-08-01T00:40:37.214Z,17.42
2022-08-01T00:43:05.678Z,18.13
2022-08-01T00:45:33.647Z,17.85
2022-08-01T00:48:01.602Z,17.33
2022-08-01T00:50:29.776Z,17.58
2022-08-01T00:53:00.875Z,16.92
2022-08-01T00:55:29.700Z,17.58
2022-08-01T00:58:04.779Z,15.45
2022-08-01T01:00:52.879Z,17.42
2022-08-01T01:03:58.596Z,17.00
2022-08-01T01:06:25.631Z,16.65
2022-08-01T01:09:11.326Z,14.65
2022-08-01T01:11:46.458Z,13.98
2022-08-01T01:14:23.784Z,14.68
2022-08-01T01:16:53.174Z,14.88
2022-08-01T01:19:26.723Z,15.30
2022-08-01T01:22:14.835Z,15.05
2022-08-01T01:24:50.410Z,14.05
2022-08-01T01:27:28.211Z,15.38
2022-08-01T01:30:01.212Z,15.13
2022-08-01T01:32:35.413Z,13.90
2022-08-01T01:35:07.672Z,14.55
2022-08-01T01:37:37.506Z,14.27
2022-08-01T01:40:07.885Z,14.10
2022-08-01T01:42:37.718Z,14.25
2022-08-01T01:45:08.749Z,14.80
2022-08-01T01:47:39.069Z,14.23
2022-08-01T01:50:09.602Z,15.82
2022-08-01T01:52:38.875Z,14.23
2022-08-01T01:55:09.941Z,13.65
2022-08-01T01:57:41.451Z,13.48
2022-08-01T02:00:13.831Z,14.05
2022-08-01T02:02:44.042Z,13.23
2022-08-01T02:05:13.646Z,14.05
2022-08-01T02:07:43.561Z,12.98
2022-08-01T02:10:13.010Z,13.07
2022-08-01T02:12:44.193Z,13.57
2022-08-01T02:15:15.046Z,13.43
2022-08-01T02:17:46.007Z,13.40
2022-08-01T02:20:15.407Z,13.27
2022-08-01T02:22:46.692Z,13.32
2022-08-01T02:25:22.515Z,12.15
2022-08-01T02:27:56.679Z,12.57
2022-08-01T02:30:27.874Z,12.32
2022-08-01T02:33:03.101Z,11.65
2022-08-01T02:35:34.071Z,11.93
2022-08-01T02:38:04.123Z,11.63
2022-08-01T02:40:35.868Z,12.40
2022-08-01T02:43:06.762Z,11.65
2022-08-01T02:45:39.806Z,10.38
2022-08-01T02:48:11.998Z,11.45
2022-08-01T02:50:41.762Z,11.00
2022-08-01T02:53:12.214Z,12.20
2022-08-01T02:55:41.859Z,11.57
2022-08-01T02:58:12.936Z,11.23
2022-08-01T03:00:43.266Z,11.13
2022-08-01T03:03:12.378Z,12.18
2022-08-01T03:05:41.619Z,11.20
2022-08-01T03:08:11.898Z,10.48
2022-08-01T03:10:44.755Z,10.80
2022-08-01T03:13:15.122Z,10.48
2022-08-01T03:15:45.495Z,10.52
2022-08-01T03:18:15.607Z,10.90
2022-08-01T03:20:45.009Z,10.88
2022-08-01T03:23:14.406Z,10.60
2022-08-01T03:25:45.226Z,10.02
2022-08-01T03:28:15.970Z,10.77
2022-08-01T03:30:46.169Z,10.05
2022-08-01T03:33:14.540Z,10.55
2022-08-01T03:35:49.882Z,9.35
2022-08-01T03:38:21.700Z,10.13
2022-08-01T03:40:54.167Z,9.27
2022-08-01T03:43:28.886Z,10.13
2022-08-01T03:46:04.261Z,9.23
2022-08-01T03:48:35.273Z,10.23
2022-08-01T03:51:04.874Z,9.05
2022-08-01T03:53:35.416Z,9.00
2022-08-01T03:56:05.797Z,9.57
2022-08-01T03:58:33.918Z,9.45
2022-08-01T04:01:03.992Z,9.35
2022-08-01T04:03:32.578Z,9.25
2022-08-01T04:06:11.382Z,9.35
2022-08-01T04:08:41.094Z,8.35
2022-08-01T04:11:10.942Z,8.70
2022-08-01T04:13:38.946Z,9.30
2022-08-01T04:16:09.361Z,8.52
2022-08-01T04:18:37.398Z,8.90
2022-08-01T04:21:05.480Z,9.23
2022-08-01T04:23:37.035Z,8.32
2022-08-01T04:26:06.618Z,8.95
2022-08-01T04:28:38.204Z,8.32
2022-08-01T04:31:12.269Z,8.70
2022-08-01T04:33:42.738Z,8.95
2022-08-01T04:36:13.042Z,8.13
2022-08-01T04:38:44.223Z,7.93
2022-08-01T04:41:15.393Z,8.50
2022-08-01T04:43:44.558Z,8.43
2022-08-01T04:46:15.521Z,8.32
2022-08-01T04:48:45.754Z,8.15
2022-08-01T04:51:16.253Z,8.35
2022-08-01T04:53:44.758Z,8.30
2022-08-01T04:56:14.102Z,8.10
2022-08-01T04:58:42.811Z,8.38
2022-08-01T05:01:11.515Z,7.38
2022-08-01T05:03:41.046Z,8.55
2022-08-01T05:06:09.090Z,8.27
2022-08-01T05:08:37.942Z,8.65
2022-08-01T05:11:06.053Z,8.05
2022-08-01T05:13:34.052Z,7.95
2022-08-01T05:16:04.550Z,7.70
2022-08-01T05:18:32.577Z,7.97
2022-08-01T05:21:02.865Z,9.10
2022-08-01T05:23:34.806Z,8.57
2022-08-01T05:26:10.942Z,9.80
2022-08-01T05:28:38.951Z,9.15
2022-08-01T05:31:06.956Z,9.45
2022-08-01T05:33:35.018Z,9.25
2022-08-01T05:36:04.470Z,8.90
2022-08-01T05:38:32.527Z,7.78
2022-08-01T05:41:00.586Z,5.32
2022-08-01T05:43:29.241Z,4.93
2022-08-01T05:45:57.487Z,5.50
2022-08-01T05:48:25.473Z,3.97
2022-08-01T05:50:58.214Z,4.32
2022-08-01T05:53:28.419Z,3.78
2022-08-01T05:55:56.792Z,4.03
2022-08-01T05:58:25.075Z,4.47
2022-08-01T06:00:53.147Z,3.65
2022-08-01T06:03:21.189Z,3.35
2022-08-01T06:05:49.194Z,3.78
2022-08-01T06:08:17.191Z,3.65
2022-08-01T06:10:46.559Z,3.50
2022-08-01T06:13:14.546Z,3.97
2022-08-01T06:15:42.642Z,3.50
2022-08-01T06:18:10.645Z,3.13
2022-08-01T06:20:38.740Z,3.08
2022-08-01T06:23:14.664Z,3.55
2022-08-01T06:25:56.604Z,3.00
2022-08-01T06:28:24.786Z,3.30
2022-08-01T06:30:53.294Z,2.90
2022-08-01T06:33:21.763Z,2.80
2022-08-01T06:35:49.732Z,3.40
2022-08-01T06:38:17.769Z,3.10
2022-08-01T06:40:45.771Z,2.75
2022-08-01T06:43:15.115Z,3.03
2022-08-01T06:45:43.368Z,3.33
2022-08-01T06:48:11.365Z,3.10
2022-08-01T06:50:39.361Z,2.50
2022-08-01T06:53:07.363Z,2.88
2022-08-01T06:55:35.609Z,2.58
2022-08-01T06:58:03.673Z,2.70
2022-08-01T07:00:33.129Z,2.83
2022-08-01T07:03:01.242Z,2.85
2022-08-01T07:05:31.860Z,2.40
2022-08-01T07:08:00.191Z,3.88
2022-08-01T07:10:28.262Z,4.30
2022-08-01T07:12:56.292Z,4.47
2022-08-01T07:15:27.444Z,4.60
2022-08-01T07:17:57.935Z,4.95
2022-08-01T07:20:26.035Z,4.57
2022-08-01T07:22:54.446Z,4.47
2022-08-01T07:25:24.780Z,3.28
2022-08-01T07:27:52.791Z,2.90
2022-08-01T07:30:20.842Z,2.25
2022-08-01T07:32:49.144Z,2.42
2022-08-01T07:35:18.540Z,2.40
2022-08-01T07:37:48.869Z,2.22
2022-08-01T07:40:18.635Z,2.25
2022-08-01T07:42:46.632Z,2.08
2022-08-01T07:45:15.354Z,2.30
2022-08-01T07:47:43.857Z,2.20
2022-08-01T07:50:13.475Z,2.00
2022-08-01T07:52:43.061Z,1.98
2022-08-01T07:55:11.711Z,2.10
2022-08-01T07:57:44.284Z,1.92
2022-08-01T08:00:13.253Z,2.30
2022-08-01T08:02:41.562Z,1.80
2022-08-01T08:05:10.314Z,2.83
2022-08-01T08:07:39.845Z,3.17
2022-08-01T08:10:10.447Z,3.83
2022-08-01T08:12:38.597Z,3.67
2022-08-01T08:15:07.798Z,3.78
2022-08-01T08:17:36.696Z,3.58
2022-08-01T08:20:09.050Z,3.50
2022-08-01T08:22:38.063Z,4.00
2022-08-01T08:25:07.760Z,3.28
2022-08-01T08:27:38.046Z,3.30
2022-08-01T08:30:09.318Z,3.53
2022-08-01T08:32:37.754Z,3.15
2022-08-01T08:35:06.890Z,3.20
2022-08-01T08:37:39.139Z,3.47
2022-08-01T08:40:16.454Z,2.58
2022-08-01T08:42:47.837Z,2.13
2022-08-01T08:45:15.853Z,1.80
2022-08-01T08:47:47.476Z,2.10
2022-08-01T08:50:15.996Z,2.05
2022-08-01T08:52:46.721Z,2.00
2022-08-01T08:55:16.390Z,1.60
2022-08-01T08:57:46.824Z,1.63
2022-08-01T09:00:17.179Z,1.67
2022-08-01T09:02:46.454Z,1.95
2022-08-01T09:05:19.504Z,1.60
2022-08-01T09:07:47.981Z,1.75
2022-08-01T09:10:15.978Z,1.70
2022-08-01T09:13:07.594Z,2.42
2022-08-01T09:15:46.865Z,3.10
2022-08-01T09:18:32.702Z,3.35
2022-08-01T09:21:11.667Z,3.13
2022-08-01T09:23:54.141Z,3.17
2022-08-01T09:26:30.988Z,2.67
2022-08-01T09:29:02.785Z,2.50
2022-08-01T09:31:38.460Z,2.75
2022-08-01T09:34:09.360Z,2.00
2022-08-01T09:36:52.118Z,2.20
2022-08-01T09:39:23.776Z,2.20
2022-08-01T09:41:52.106Z,1.73
2022-08-01T09:44:39.942Z,1.98
2022-08-01T09:47:12.019Z,2.00
2022-08-01T09:49:50.699Z,2.30
2022-08-01T09:52:26.020Z,2.08
2022-08-01T09:54:58.956Z,2.30
2022-08-01T09:57:27.639Z,1.60
2022-08-01T10:00:00.825Z,1.58
2022-08-01T10:02:33.257Z,1.77
2022-08-01T10:05:08.357Z,1.63
2022-08-01T10:10:14.464Z,2.30
2022-08-01T10:12:45.227Z,2.28
2022-08-01T10:15:18.221Z,1.80
2022-08-01T10:17:57.778Z,2.00
2022-08-01T10:20:30.324Z,1.65
2022-08-01T10:23:05.805Z,1.90
2022-08-01T10:25:44.088Z,1.67
2022-08-01T10:28:21.807Z,1.92
2022-08-01T10:30:54.278Z,1.70
2022-08-01T10:33:50.855Z,1.50
2022-08-01T10:36:12.934Z,1.55
2022-08-01T10:38:41.563Z,1.70
2022-08-01T10:41:11.584Z,1.35
2022-08-01T10:43:41.394Z,1.80
2022-08-01T10:46:14.935Z,2.00
2022-08-01T10:48:52.032Z,1.70
2022-08-01T10:51:22.377Z,1.65
2022-08-01T10:53:56.953Z,1.80
2022-08-01T10:56:41.418Z,1.70
2022-08-01T10:59:11.595Z,1.70
2022-08-01T11:01:45.097Z,1.60
2022-08-01T11:04:16.958Z,1.48
2022-08-01T11:06:55.469Z,1.60
2022-08-01T11:09:37.041Z,1.60
2022-08-01T11:12:13.538Z,1.60
2022-08-01T11:15:29.866Z,1.63
2022-08-01T11:18:01.662Z,1.48
2022-08-01T11:20:32.191Z,1.40
2022-08-01T11:23:17.996Z,1.60
2022-08-01T11:26:10.709Z,1.40
2022-08-01T11:28:41.253Z,1.33
2022-08-01T11:31:29.594Z,1.35
2022-08-01T11:34:03.390Z,1.30
2022-08-01T11:36:57.221Z,1.33
2022-08-01T11:39:20.248Z,1.50
2022-08-01T11:41:49.860Z,1.30
2022-08-01T11:44:26.531Z,1.65
2022-08-01T11:46:57.991Z,1.48
2022-08-01T11:49:49.385Z,1.48
2022-08-01T11:52:20.621Z,1.35
2022-08-01T11:54:50.303Z,1.23
2022-08-01T11:57:23.582Z,1.45
2022-08-01T12:00:03.864Z,1.20
2022-08-01T12:02:34.861Z,1.48
2022-08-01T12:05:08.784Z,1.13
2022-08-01T12:07:41.599Z,1.60
2022-08-01T12:10:11.033Z,1.40
2022-08-01T12:12:44.447Z,1.30
2022-08-01T12:15:13.986Z,1.40
2022-08-01T12:17:46.935Z,1.60
2022-08-01T12:20:32.041Z,1.23
2022-08-01T12:23:02.212Z,1.38
2022-08-01T12:25:30.790Z,1.10
2022-08-01T12:28:02.406Z,1.20
2022-08-01T12:30:31.887Z,1.13
2022-08-01T12:33:00.582Z,1.17
2022-08-01T12:35:31.570Z,1.00
2022-08-01T12:38:01.442Z,1.10
2022-08-01T12:40:31.747Z,1.30
2022-08-01T12:43:03.195Z,1.60
2022-08-01T12:45:36.063Z,1.30
2022-08-01T12:48:10.331Z,1.30
2022-08-01T12:50:40.826Z,1.00
2022-08-01T12:53:11.016Z,0.88
2022-08-01T12:55:59.069Z,0.85
2022-08-01T12:58:33.482Z,0.90
2022-08-01T13:01:06.612Z,0.90
2022-08-01T13:03:34.894Z,0.77
2022-08-01T13:06:13.433Z,1.10
2022-08-01T13:08:41.575Z,0.88
2022-08-01T13:11:15.059Z,0.90
2022-08-01T13:13:44.679Z,0.70
2022-08-01T13:16:15.648Z,0.98
2022-08-01T13:18:56.122Z,0.95
2022-08-01T13:21:27.370Z,0.98
2022-08-01T13:24:08.036Z,1.00
2022-08-01T13:26:48.418Z,1.42
2022-08-01T13:29:18.200Z,1.30
2022-08-01T13:31:46.890Z,1.55
2022-08-01T13:34:16.957Z,1.25
2022-08-01T13:36:49.688Z,0.90
2022-08-01T13:39:35.434Z,1.00
2022-08-01T13:42:03.753Z,1.38
2022-08-01T13:44:31.948Z,1.85
2022-08-01T13:46:59.969Z,1.67
2022-08-01T13:49:36.406Z,1.35
2022-08-01T13:52:08.410Z,1.80
2022-08-01T13:54:37.192Z,1.85
2022-08-01T13:57:05.405Z,1.60
2022-08-01T13:59:33.647Z,1.60
2022-08-01T14:02:01.686Z,1.63
2022-08-01T14:04:29.706Z,1.98
2022-08-01T14:06:57.667Z,1.50
2022-08-01T14:09:32.273Z,1.70
2022-08-01T14:12:00.635Z,1.83
2022-08-01T14:14:28.750Z,1.80
2022-08-01T14:16:56.715Z,1.65
2022-08-01T14:19:37.499Z,2.50
2022-08-01T14:22:07.914Z,1.90
2022-08-01T14:24:38.988Z,1.90
2022-08-01T14:27:09.022Z,1.85
2022-08-01T14:30:01.183Z,2.13
2022-08-01T14:32:28.540Z,2.50
2022-08-01T14:34:57.537Z,2.10
2022-08-01T14:37:28.869Z,1.80
2022-08-01T14:40:00.040Z,1.70
2022-08-01T14:42:28.440Z,1.70
2022-08-01T14:44:56.436Z,1.77
2022-08-01T14:47:24.540Z,1.50
2022-08-01T14:49:52.784Z,1.70
2022-08-01T14:52:21.457Z,1.80
2022-08-01T14:54:49.644Z,1.80
2022-08-01T14:57:20.095Z,1.40
2022-08-01T14:59:48.292Z,1.45
2022-08-01T15:02:18.076Z,1.63
2022-08-01T15:04:46.323Z,1.70
2022-08-01T15:07:14.667Z,1.95
2022-08-01T15:09:43.142Z,1.52
2022-08-01T15:12:12.459Z,1.38
2022-08-01T15:14:51.437Z,1.35
2022-08-01T15:17:20.885Z,1.50
2022-08-01T15:19:52.176Z,1.70
2022-08-01T15:22:20.503Z,1.40
2022-08-01T15:24:48.946Z,1.30
2022-08-01T15:27:17.288Z,1.48
2022-08-01T15:29:46.704Z,1.48
2022-08-01T15:32:15.098Z,1.38
2022-08-01T15:34:44.178Z,1.30
2022-08-01T15:37:12.952Z,1.20
2022-08-01T15:39:42.250Z,1.20
2022-08-01T15:42:11.875Z,1.40
2022-08-01T15:44:40.487Z,1.30
2022-08-01T15:47:10.613Z,1.52
2022-08-01T15:49:39.156Z,1.35
2022-08-01T15:52:08.333Z,1.60
2022-08-01T15:54:49.624Z,1.25
2022-08-01T15:57:17.669Z,1.42
2022-08-01T15:59:45.723Z,1.60
2022-08-01T16:02:15.589Z,1.30
2022-08-01T16:04:43.645Z,1.35
2022-08-01T16:07:12.095Z,1.30
2022-08-01T16:09:40.226Z,1.25
2022-08-01T16:12:10.178Z,1.10
2022-08-01T16:14:38.627Z,1.20
2022-08-01T16:17:06.652Z,1.45
2022-08-01T16:19:36.063Z,1.52
2022-08-01T16:22:04.492Z,1.20
2022-08-01T16:24:32.755Z,1.10
2022-08-01T16:27:00.814Z,1.35
2022-08-01T16:29:30.806Z,1.20
2022-08-01T16:32:22.643Z,1.27
2022-08-01T16:34:48.664Z,1.35
2022-08-01T16:37:17.133Z,1.55
2022-08-01T16:39:45.592Z,1.13
2022-08-01T16:42:15.773Z,1.20
2022-08-01T16:44:45.030Z,1.40
2022-08-01T16:47:13.240Z,1.40
2022-08-01T16:49:41.378Z,1.30
2022-08-01T16:52:10.905Z,1.13
2022-08-01T16:54:39.276Z,1.40
2022-08-01T16:57:07.917Z,1.45
2022-08-01T16:59:40.996Z,1.10
2022-08-01T17:02:11.034Z,1.15
2022-08-01T17:04:39.190Z,1.08
2022-08-01T17:07:07.667Z,1.30
2022-08-01T17:09:41.293Z,1.08
2022-08-01T17:12:13.077Z,1.10
2022-08-01T17:14:50.400Z,0.90
2022-08-01T17:17:18.510Z,1.00
2022-08-01T17:19:46.698Z,0.90
2022-08-01T17:22:14.707Z,0.77
2022-08-01T17:24:44.311Z,0.88
2022-08-01T17:27:13.646Z,0.80
2022-08-01T17:29:44.115Z,0.73
2022-08-01T17:32:14.053Z,0.98
2022-08-01T17:34:42.434Z,1.17
2022-08-01T17:37:10.680Z,1.17
2022-08-01T17:39:40.052Z,1.05
2022-08-01T17:42:10.908Z,1.50
2022-08-01T17:44:39.435Z,1.05
2022-08-01T17:47:10.218Z,0.75
2022-08-01T17:49:55.713Z,1.20
2022-08-01T17:52:26.204Z,1.00
2022-08-01T17:54:57.995Z,0.98
2022-08-01T17:57:27.668Z,1.13
2022-08-01T17:59:56.152Z,1.00
2022-08-01T18:02:24.138Z,0.90
2022-08-01T18:04:52.926Z,1.10
2022-08-01T18:08:00.389Z,0.80
2022-08-01T18:10:11.679Z,0.90
2022-08-01T18:12:41.678Z,0.73
2022-08-01T18:15:10.410Z,1.15
2022-08-01T18:17:43.212Z,0.90
2022-08-01T18:20:12.374Z,1.10
2022-08-01T18:22:41.566Z,1.08
2022-08-01T18:25:10.422Z,1.08
2022-08-01T18:28:23.491Z,1.08
2022-08-01T18:30:28.224Z,1.00
2022-08-01T18:32:56.248Z,0.98
2022-08-01T18:35:30.940Z,1.08
2022-08-01T18:38:12.718Z,1.10
2022-08-01T18:40:41.686Z,0.98
2022-08-01T18:43:11.775Z,1.00
2022-08-01T18:45:43.007Z,1.27
2022-08-01T18:48:11.467Z,1.10
2022-08-01T18:50:40.447Z,1.20
2022-08-01T18:53:08.508Z,1.13
2022-08-01T18:55:36.490Z,0.77
2022-08-01T18:58:04.621Z,1.10
2022-08-01T19:00:34.611Z,0.90
2022-08-01T19:03:03.184Z,1.00
2022-08-01T19:05:34.843Z,0.95
2022-08-01T19:08:07.533Z,0.80
2022-08-01T19:10:36.523Z,0.90
2022-08-01T19:13:05.077Z,0.70
2022-08-01T19:15:34.454Z,1.20
2022-08-01T19:18:03.131Z,0.85
2022-08-01T19:20:31.510Z,1.00
2022-08-01T19:22:59.602Z,0.90
2022-08-01T19:25:27.942Z,1.00
2022-08-01T19:27:59.287Z,0.80
2022-08-01T19:30:28.361Z,0.90
2022-08-01T19:32:57.903Z,0.80
2022-08-01T19:35:26.061Z,1.00
2022-08-01T19:37:54.570Z,0.82
2022-08-01T19:40:26.607Z,0.70
2022-08-01T19:42:57.652Z,0.80
2022-08-01T19:45:29.219Z,1.02
2022-08-01T19:47:59.889Z,1.13
2022-08-01T19:50:28.721Z,1.60
2022-08-01T19:52:58.790Z,1.30
2022-08-01T19:55:28.683Z,1.35
2022-08-01T19:58:24.427Z,1.40
2022-08-01T20:00:49.202Z,1.20
2022-08-01T20:03:20.016Z,1.30
2022-08-01T20:05:48.156Z,1.27
2022-08-01T20:08:17.543Z,1.38
2022-08-01T20:10:47.831Z,1.17
2022-08-01T20:13:16.181Z,1.30
2022-08-01T20:15:45.001Z,1.35
2022-08-01T20:18:13.037Z,1.35
2022-08-01T20:20:44.615Z,1.48
2022-08-01T20:23:18.146Z,1.00
2022-08-01T20:25:50.401Z,1.15
2022-08-01T20:28:22.606Z,0.85
2022-08-01T20:30:54.883Z,1.10
2022-08-01T20:33:24.069Z,0.90
2022-08-01T20:35:56.465Z,1.20
2022-08-01T20:38:29.479Z,1.00
2022-08-01T20:40:58.938Z,1.20
2022-08-01T20:43:28.043Z,1.30
2022-08-01T20:45:56.719Z,1.10
2022-08-01T20:48:27.349Z,1.02
2022-08-01T20:51:17.260Z,1.10
2022-08-01T20:53:49.016Z,1.15
2022-08-01T20:56:22.247Z,0.90
2022-08-01T20:59:03.402Z,0.95
2022-08-01T21:01:39.856Z,0.85
2022-08-01T21:04:23.743Z,1.13
2022-08-01T21:06:56.352Z,1.00
2022-08-01T21:09:25.818Z,1.27
2022-08-01T21:12:04.811Z,1.00
2022-08-01T21:14:51.276Z,0.90
2022-08-01T21:17:23.791Z,0.90
2022-08-01T21:19:55.685Z,0.88
2022-08-01T21:22:33.915Z,1.30
2022-08-01T21:25:06.972Z,0.80
2022-08-01T21:27:35.708Z,0.98
2022-08-01T21:30:06.401Z,0.98
2022-08-01T21:32:35.482Z,0.98
2022-08-01T21:35:05.299Z,0.80
2022-08-01T21:37:38.143Z,0.82
2022-08-01T21:40:10.004Z,1.10
2022-08-01T21:42:40.366Z,0.93
2022-08-01T21:45:10.640Z,0.85
2022-08-01T21:47:38.934Z,1.30
2022-08-01T21:50:09.411Z,0.85
2022-08-01T21:52:44.809Z,0.93
2022-08-01T21:55:22.799Z,0.95
2022-08-01T21:58:18.534Z,1.20
2022-08-01T22:00:53.077Z,1.00
2022-08-01T22:03:25.278Z,1.00
2022-08-01T22:05:54.990Z,0.75
2022-08-01T22:08:30.585Z,0.98
2022-08-01T22:11:00.714Z,0.93
2022-08-01T22:13:29.115Z,0.93
2022-08-01T22:15:58.352Z,0.90
2022-08-01T22:18:28.661Z,0.63
2022-08-01T22:20:57.433Z,1.00
2022-08-01T22:23:27.278Z,0.77
2022-08-01T22:25:56.497Z,0.80
2022-08-01T22:28:24.955Z,0.95
2022-08-01T22:30:54.572Z,0.75
2022-08-01T22:33:22.746Z,0.88
2022-08-01T22:35:52.588Z,0.80
2022-08-01T22:38:23.444Z,1.10
2022-08-01T22:40:54.465Z,0.90
2022-08-01T22:43:29.568Z,0.82
2022-08-01T22:46:22.541Z,0.90
2022-08-01T22:48:59.561Z,0.88
2022-08-01T22:51:38.219Z,0.73
2022-08-01T22:54:09.690Z,1.00
2022-08-01T22:56:42.466Z,0.88
2022-08-01T22:59:15.232Z,0.80
2022-08-01T23:01:47.885Z,0.82
2022-08-01T23:04:29.492Z,0.80
2022-08-01T23:07:05.489Z,1.00
2022-08-01T23:09:54.000Z,0.77
2022-08-01T23:12:25.384Z,0.60
2022-08-01T23:14:55.564Z,1.00
2022-08-01T23:17:26.807Z,0.75
2022-08-01T23:20:01.762Z,0.80
2022-08-01T23:22:32.107Z,0.85
2022-08-01T23:25:05.130Z,0.70
2022-08-01T23:27:54.229Z,0.77
2022-08-01T23:30:29.781Z,0.70
2022-08-01T23:32:58.408Z,0.80
2022-08-01T23:35:27.252Z,0.98
2022-08-01T23:38:01.758Z,0.98
2022-08-01T23:40:31.808Z,0.70
2022-08-01T23:43:04.112Z,0.60
2022-08-01T23:45:36.087Z,0.68
2022-08-01T23:48:20.510Z,0.68
2022-08-01T23:50:48.601Z,0.80
2022-08-01T23:53:16.818Z,1.00
2022-08-01T23:55:44.864Z,0.80
2022-08-01T23:58:14.207Z,0.70
